sensor_id;sensor_type;location;lat;lon;timestamp;P1;durP1;ratioP1;P2;durP2;ratioP2
15950;SDS011;8074;48.112;11.570;2022-10-26T00:01:06;16.13;;;9.50;;
15950;SDS011;8074;48.112;11.570;2022-10-26T00:03:35;6.43;;;3.73;;
15950;SDS011;8074;48.112;11.570;2022-10-26T00:06:03;7.17;;;3.10;;
15950;SDS011;8074;48.112;11.570;2022-10-26T00:08:31;4.80;;;2.90;;
15950;SDS011;8074;48.112;11.570;2022-10-26T00:11:00;8.63;;;2.80;;
15950;SDS011;8074;48.112;11.570;2022-10-26T00:13:27;6.37;;;2.67;;
15950;SDS011;8074;48.112;11.570;2022-10-26T00:15:54;4.90;;;2.90;;
15950;SDS011;8074;48.112;11.570;2022-10-26T00:18:21;5.43;;;2.40;;
15950;SDS011;8074;48.112;11.570;2022-10-26T00:20:47;4.80;;;2.50;;
15950;SDS011;8074;48.112;11.570;2022-10-26T00:23:14;5.93;;;2.70;;
15950;SDS011;8074;48.112;11.570;2022-10-26T00:25:42;5.40;;;3.00;;
15950;SDS011;8074;48.112;11.570;2022-10-26T00:28:11;5.20;;;2.97;;
15950;SDS011;8074;48.112;11.570;2022-10-26T00:30:38;5.33;;;2.33;;
15950;SDS011;8074;48.112;11.570;2022-10-26T00:33:05;3.93;;;2.40;;
15950;SDS011;8074;48.112;11.570;2022-10-26T00:35:35;4.77;;;2.47;;
15950;SDS011;8074;48.112;11.570;2022-10-26T00:38:02;5.97;;;2.80;;
15950;SDS011;8074;48.112;11.570;2022-10-26T00:40:28;7.70;;;2.60;;
15950;SDS011;8074;48.112;11.570;2022-10-26T00:42:55;3.97;;;2.20;;
15950;SDS011;8074;48.112;11.570;2022-10-26T00:45:24;4.17;;;2.60;;
15950;SDS011;8074;48.112;11.570;2022-10-26T00:47:53;3.77;;;2.10;;
15950;SDS011;8074;48.112;11.570;2022-10-26T00:50:24;6.70;;;2.40;;
15950;SDS011;8074;48.112;11.570;2022-10-26T00:52:54;3.83;;;2.23;;
15950;SDS011;8074;48.112;11.570;2022-10-26T00:55:23;3.10;;;2.30;;
15950;SDS011;8074;48.112;11.570;2022-10-26T00:57:54;3.33;;;2.37;;
15950;SDS011;8074;48.112;11.570;2022-10-26T01:00:21;3.33;;;2.30;;
15950;SDS011;8074;48.112;11.570;2022-10-26T01:02:50;4.70;;;2.70;;
15950;SDS011;8074;48.112;11.570;2022-10-26T01:05:17;5.03;;;2.60;;
15950;SDS011;8074;48.112;11.570;2022-10-26T01:07:44;5.40;;;2.40;;
15950;SDS011;8074;48.112;11.570;2022-10-26T01:10:13;3.67;;;2.10;;
15950;SDS011;8074;48.112;11.570;2022-10-26T01:12:40;4.50;;;2.37;;
15950;SDS011;8074;48.112;11.570;2022-10-26T01:15:07;3.47;;;2.17;;
15950;SDS011;8074;48.112;11.570;2022-10-26T01:17:40;4.57;;;2.20;;
15950;SDS011;8074;48.112;11.570;2022-10-26T01:20:31;4.53;;;1.90;;
15950;SDS011;8074;48.112;11.570;2022-10-26T01:23:18;3.77;;;2.23;;
15950;SDS011;8074;48.112;11.570;2022-10-26T01:26:00;8.33;;;2.50;;
15950;SDS011;8074;48.112;11.570;2022-10-26T01:28:51;5.03;;;2.30;;
15950;SDS011;8074;48.112;11.570;2022-10-26T01:31:36;4.87;;;2.00;;
15950;SDS011;8074;48.112;11.570;2022-10-26T01:34:07;3.10;;;2.17;;
15950;SDS011;8074;48.112;11.570;2022-10-26T01:36:40;6.33;;;2.30;;
15950;SDS011;8074;48.112;11.570;2022-10-26T01:39:13;4.43;;;2.37;;
15950;SDS011;8074;48.112;11.570;2022-10-26T01:41:44;3.13;;;2.33;;
15950;SDS011;8074;48.112;11.570;2022-10-26T01:44:14;6.30;;;2.10;;
15950;SDS011;8074;48.112;11.570;2022-10-26T01:46:45;10.10;;;2.57;;
15950;SDS011;8074;48.112;11.570;2022-10-26T01:49:14;5.57;;;2.20;;
15950;SDS011;8074;48.112;11.570;2022-10-26T01:51:45;3.00;;;2.23;;
15950;SDS011;8074;48.112;11.570;2022-10-26T01:54:14;3.43;;;1.90;;
15950;SDS011;8074;48.112;11.570;2022-10-26T01:56:44;5.00;;;2.23;;
15950;SDS011;8074;48.112;11.570;2022-10-26T01:59:21;4.80;;;2.17;;
15950;SDS011;8074;48.112;11.570;2022-10-26T02:04:57;2.80;;;2.10;;
15950;SDS011;8074;48.112;11.570;2022-10-26T02:10:17;3.70;;;2.27;;
15950;SDS011;8074;48.112;11.570;2022-10-26T02:15:30;4.93;;;1.93;;
15950;SDS011;8074;48.112;11.570;2022-10-26T02:20:54;4.03;;;1.70;;
15950;SDS011;8074;48.112;11.570;2022-10-26T02:23:25;3.40;;;2.00;;
15950;SDS011;8074;48.112;11.570;2022-10-26T02:28:21;4.87;;;2.23;;
15950;SDS011;8074;48.112;11.570;2022-10-26T02:30:53;3.30;;;2.10;;
15950;SDS011;8074;48.112;11.570;2022-10-26T02:33:23;4.37;;;1.97;;
15950;SDS011;8074;48.112;11.570;2022-10-26T02:35:55;2.67;;;2.03;;
15950;SDS011;8074;48.112;11.570;2022-10-26T02:38:26;2.67;;;2.20;;
15950;SDS011;8074;48.112;11.570;2022-10-26T02:40:55;5.77;;;2.00;;
15950;SDS011;8074;48.112;11.570;2022-10-26T02:43:23;5.90;;;2.10;;
15950;SDS011;8074;48.112;11.570;2022-10-26T02:45:52;3.60;;;2.10;;
15950;SDS011;8074;48.112;11.570;2022-10-26T02:50:52;4.07;;;2.00;;
15950;SDS011;8074;48.112;11.570;2022-10-26T02:55:51;5.53;;;1.93;;
15950;SDS011;8074;48.112;11.570;2022-10-26T02:58:19;4.40;;;2.20;;
15950;SDS011;8074;48.112;11.570;2022-10-26T03:00:50;2.53;;;2.00;;
15950;SDS011;8074;48.112;11.570;2022-10-26T03:03:17;5.83;;;1.90;;
15950;SDS011;8074;48.112;11.570;2022-10-26T03:05:45;2.97;;;1.60;;
15950;SDS011;8074;48.112;11.570;2022-10-26T03:08:13;3.53;;;1.87;;
15950;SDS011;8074;48.112;11.570;2022-10-26T03:10:41;4.40;;;2.10;;
15950;SDS011;8074;48.112;11.570;2022-10-26T03:13:09;6.13;;;2.53;;
15950;SDS011;8074;48.112;11.570;2022-10-26T03:15:37;4.53;;;2.10;;
15950;SDS011;8074;48.112;11.570;2022-10-26T03:18:04;4.23;;;1.90;;
15950;SDS011;8074;48.112;11.570;2022-10-26T03:20:31;3.43;;;1.97;;
15950;SDS011;8074;48.112;11.570;2022-10-26T03:22:58;4.63;;;2.00;;
15950;SDS011;8074;48.112;11.570;2022-10-26T03:25:26;3.37;;;2.30;;
15950;SDS011;8074;48.112;11.570;2022-10-26T03:27:56;3.80;;;1.97;;
15950;SDS011;8074;48.112;11.570;2022-10-26T03:30:24;4.30;;;2.67;;
15950;SDS011;8074;48.112;11.570;2022-10-26T03:32:51;2.17;;;1.97;;
15950;SDS011;8074;48.112;11.570;2022-10-26T03:35:18;2.93;;;1.90;;
15950;SDS011;8074;48.112;11.570;2022-10-26T03:40:17;3.13;;;1.90;;
15950;SDS011;8074;48.112;11.570;2022-10-26T03:42:45;3.03;;;2.17;;
15950;SDS011;8074;48.112;11.570;2022-10-26T03:45:13;3.80;;;1.80;;
15950;SDS011;8074;48.112;11.570;2022-10-26T03:47:44;5.70;;;2.10;;
15950;SDS011;8074;48.112;11.570;2022-10-26T03:50:20;2.67;;;1.80;;
15950;SDS011;8074;48.112;11.570;2022-10-26T03:52:51;4.87;;;1.90;;
15950;SDS011;8074;48.112;11.570;2022-10-26T03:55:18;3.50;;;1.93;;
15950;SDS011;8074;48.112;11.570;2022-10-26T04:01:05;2.97;;;2.00;;
15950;SDS011;8074;48.112;11.570;2022-10-26T04:03:32;2.20;;;2.00;;
15950;SDS011;8074;48.112;11.570;2022-10-26T04:08:24;3.13;;;2.10;;
15950;SDS011;8074;48.112;11.570;2022-10-26T04:10:51;2.73;;;1.90;;
15950;SDS011;8074;48.112;11.570;2022-10-26T04:13:18;3.53;;;2.00;;
15950;SDS011;8074;48.112;11.570;2022-10-26T04:15:44;3.33;;;1.97;;
15950;SDS011;8074;48.112;11.570;2022-10-26T04:18:13;3.97;;;2.30;;
15950;SDS011;8074;48.112;11.570;2022-10-26T04:20:40;3.07;;;2.40;;
15950;SDS011;8074;48.112;11.570;2022-10-26T04:23:08;4.40;;;2.10;;
15950;SDS011;8074;48.112;11.570;2022-10-26T04:25:37;3.77;;;2.20;;
15950;SDS011;8074;48.112;11.570;2022-10-26T04:28:04;2.47;;;2.10;;
15950;SDS011;8074;48.112;11.570;2022-10-26T04:30:33;3.53;;;1.73;;
15950;SDS011;8074;48.112;11.570;2022-10-26T04:33:05;3.90;;;2.43;;
15950;SDS011;8074;48.112;11.570;2022-10-26T04:35:40;2.80;;;2.37;;
15950;SDS011;8074;48.112;11.570;2022-10-26T04:38:10;5.70;;;2.60;;
15950;SDS011;8074;48.112;11.570;2022-10-26T04:40:37;3.47;;;2.53;;
15950;SDS011;8074;48.112;11.570;2022-10-26T04:43:04;4.17;;;2.60;;
15950;SDS011;8074;48.112;11.570;2022-10-26T04:45:31;4.17;;;2.40;;
15950;SDS011;8074;48.112;11.570;2022-10-26T04:47:59;3.57;;;2.67;;
15950;SDS011;8074;48.112;11.570;2022-10-26T04:50:27;4.73;;;2.07;;
15950;SDS011;8074;48.112;11.570;2022-10-26T04:52:55;4.87;;;2.20;;
15950;SDS011;8074;48.112;11.570;2022-10-26T04:55:22;4.97;;;1.97;;
15950;SDS011;8074;48.112;11.570;2022-10-26T04:57:50;4.57;;;2.03;;
15950;SDS011;8074;48.112;11.570;2022-10-26T05:00:17;6.80;;;2.90;;
15950;SDS011;8074;48.112;11.570;2022-10-26T05:02:44;5.93;;;2.30;;
15950;SDS011;8074;48.112;11.570;2022-10-26T05:05:13;3.47;;;2.30;;
15950;SDS011;8074;48.112;11.570;2022-10-26T05:07:52;2.50;;;2.00;;
15950;SDS011;8074;48.112;11.570;2022-10-26T05:10:47;5.30;;;2.63;;
15950;SDS011;8074;48.112;11.570;2022-10-26T05:13:15;4.10;;;2.60;;
15950;SDS011;8074;48.112;11.570;2022-10-26T05:15:42;3.83;;;2.53;;
15950;SDS011;8074;48.112;11.570;2022-10-26T05:18:09;3.87;;;2.60;;
15950;SDS011;8074;48.112;11.570;2022-10-26T05:20:35;5.00;;;2.67;;
15950;SDS011;8074;48.112;11.570;2022-10-26T05:23:04;5.23;;;2.77;;
15950;SDS011;8074;48.112;11.570;2022-10-26T05:25:34;4.97;;;2.90;;
15950;SDS011;8074;48.112;11.570;2022-10-26T05:28:02;5.10;;;3.70;;
15950;SDS011;8074;48.112;11.570;2022-10-26T05:30:30;6.83;;;3.47;;
15950;SDS011;8074;48.112;11.570;2022-10-26T05:33:02;5.73;;;3.10;;
15950;SDS011;8074;48.112;11.570;2022-10-26T05:35:30;4.63;;;2.77;;
15950;SDS011;8074;48.112;11.570;2022-10-26T05:37:57;5.53;;;3.10;;
15950;SDS011;8074;48.112;11.570;2022-10-26T05:40:26;4.83;;;2.87;;
15950;SDS011;8074;48.112;11.570;2022-10-26T05:42:58;4.50;;;2.60;;
15950;SDS011;8074;48.112;11.570;2022-10-26T05:45:25;6.03;;;2.90;;
15950;SDS011;8074;48.112;11.570;2022-10-26T05:47:52;5.53;;;3.20;;
15950;SDS011;8074;48.112;11.570;2022-10-26T05:50:22;5.37;;;3.30;;
15950;SDS011;8074;48.112;11.570;2022-10-26T05:52:49;5.17;;;3.17;;
15950;SDS011;8074;48.112;11.570;2022-10-26T05:55:19;6.90;;;2.97;;
15950;SDS011;8074;48.112;11.570;2022-10-26T05:57:51;6.97;;;3.20;;
15950;SDS011;8074;48.112;11.570;2022-10-26T06:00:19;5.67;;;3.60;;
15950;SDS011;8074;48.112;11.570;2022-10-26T06:02:52;7.67;;;3.67;;
15950;SDS011;8074;48.112;11.570;2022-10-26T06:05:34;11.23;;;3.97;;
15950;SDS011;8074;48.112;11.570;2022-10-26T06:08:07;6.57;;;3.30;;
15950;SDS011;8074;48.112;11.570;2022-10-26T06:10:36;6.47;;;3.20;;
15950;SDS011;8074;48.112;11.570;2022-10-26T06:13:05;8.23;;;3.77;;
15950;SDS011;8074;48.112;11.570;2022-10-26T06:15:35;11.93;;;8.40;;
15950;SDS011;8074;48.112;11.570;2022-10-26T06:18:10;7.73;;;4.13;;
15950;SDS011;8074;48.112;11.570;2022-10-26T06:20:46;4.83;;;3.87;;
15950;SDS011;8074;48.112;11.570;2022-10-26T06:23:39;7.37;;;3.90;;
15950;SDS011;8074;48.112;11.570;2022-10-26T06:26:18;9.10;;;3.60;;
15950;SDS011;8074;48.112;11.570;2022-10-26T06:28:58;8.77;;;4.20;;
15950;SDS011;8074;48.112;11.570;2022-10-26T06:31:35;9.13;;;3.50;;
15950;SDS011;8074;48.112;11.570;2022-10-26T06:34:02;6.87;;;3.40;;
15950;SDS011;8074;48.112;11.570;2022-10-26T06:36:29;10.93;;;4.20;;
15950;SDS011;8074;48.112;11.570;2022-10-26T06:38:58;10.97;;;4.90;;
15950;SDS011;8074;48.112;11.570;2022-10-26T06:41:33;7.63;;;4.13;;
15950;SDS011;8074;48.112;11.570;2022-10-26T06:44:03;11.13;;;5.17;;
15950;SDS011;8074;48.112;11.570;2022-10-26T06:46:35;9.73;;;6.03;;
15950;SDS011;8074;48.112;11.570;2022-10-26T06:49:06;9.37;;;4.23;;
15950;SDS011;8074;48.112;11.570;2022-10-26T06:51:42;9.03;;;3.30;;
15950;SDS011;8074;48.112;11.570;2022-10-26T06:54:15;6.73;;;3.00;;
15950;SDS011;8074;48.112;11.570;2022-10-26T06:56:48;7.07;;;3.80;;
15950;SDS011;8074;48.112;11.570;2022-10-26T06:59:27;6.93;;;3.47;;
15950;SDS011;8074;48.112;11.570;2022-10-26T07:02:01;7.60;;;3.33;;
15950;SDS011;8074;48.112;11.570;2022-10-26T07:04:28;4.47;;;3.30;;
15950;SDS011;8074;48.112;11.570;2022-10-26T07:06:55;6.10;;;3.57;;
15950;SDS011;8074;48.112;11.570;2022-10-26T07:09:22;7.90;;;3.27;;
15950;SDS011;8074;48.112;11.570;2022-10-26T07:11:49;7.30;;;3.70;;
15950;SDS011;8074;48.112;11.570;2022-10-26T07:14:16;4.00;;;2.77;;
15950;SDS011;8074;48.112;11.570;2022-10-26T07:16:45;6.87;;;4.03;;
15950;SDS011;8074;48.112;11.570;2022-10-26T07:19:12;3.13;;;2.13;;
15950;SDS011;8074;48.112;11.570;2022-10-26T07:21:39;5.43;;;2.70;;
15950;SDS011;8074;48.112;11.570;2022-10-26T07:24:06;3.17;;;2.33;;
15950;SDS011;8074;48.112;11.570;2022-10-26T07:26:41;6.37;;;2.20;;
15950;SDS011;8074;48.112;11.570;2022-10-26T07:29:11;6.00;;;2.60;;
15950;SDS011;8074;48.112;11.570;2022-10-26T07:31:39;4.83;;;2.43;;
15950;SDS011;8074;48.112;11.570;2022-10-26T07:34:07;4.40;;;2.27;;
15950;SDS011;8074;48.112;11.570;2022-10-26T07:36:34;5.03;;;2.80;;
15950;SDS011;8074;48.112;11.570;2022-10-26T07:39:01;5.27;;;2.30;;
15950;SDS011;8074;48.112;11.570;2022-10-26T07:41:28;4.57;;;2.00;;
15950;SDS011;8074;48.112;11.570;2022-10-26T07:43:55;5.90;;;1.90;;
15950;SDS011;8074;48.112;11.570;2022-10-26T07:46:22;7.40;;;2.70;;
15950;SDS011;8074;48.112;11.570;2022-10-26T07:48:49;6.23;;;2.43;;
15950;SDS011;8074;48.112;11.570;2022-10-26T07:51:17;5.10;;;2.40;;
15950;SDS011;8074;48.112;11.570;2022-10-26T07:53:47;4.00;;;2.20;;
15950;SDS011;8074;48.112;11.570;2022-10-26T07:56:14;3.47;;;1.83;;
15950;SDS011;8074;48.112;11.570;2022-10-26T07:58:41;4.07;;;1.60;;
15950;SDS011;8074;48.112;11.570;2022-10-26T08:01:09;3.53;;;1.93;;
15950;SDS011;8074;48.112;11.570;2022-10-26T08:03:37;2.20;;;1.60;;
15950;SDS011;8074;48.112;11.570;2022-10-26T08:06:05;3.10;;;1.50;;
15950;SDS011;8074;48.112;11.570;2022-10-26T08:08:35;4.07;;;1.73;;
15950;SDS011;8074;48.112;11.570;2022-10-26T08:11:02;2.30;;;1.83;;
15950;SDS011;8074;48.112;11.570;2022-10-26T08:13:33;2.63;;;1.60;;
15950;SDS011;8074;48.112;11.570;2022-10-26T08:16:01;5.43;;;3.23;;
15950;SDS011;8074;48.112;11.570;2022-10-26T08:18:29;3.10;;;1.70;;
15950;SDS011;8074;48.112;11.570;2022-10-26T08:21:00;2.70;;;1.77;;
15950;SDS011;8074;48.112;11.570;2022-10-26T08:23:28;2.83;;;1.90;;
15950;SDS011;8074;48.112;11.570;2022-10-26T08:25:58;4.00;;;1.83;;
15950;SDS011;8074;48.112;11.570;2022-10-26T08:28:25;6.07;;;4.70;;
15950;SDS011;8074;48.112;11.570;2022-10-26T08:30:53;5.87;;;3.10;;
15950;SDS011;8074;48.112;11.570;2022-10-26T08:33:20;4.27;;;2.90;;
15950;SDS011;8074;48.112;11.570;2022-10-26T08:35:48;2.67;;;1.57;;
15950;SDS011;8074;48.112;11.570;2022-10-26T08:38:22;3.97;;;1.60;;
15950;SDS011;8074;48.112;11.570;2022-10-26T08:40:49;4.30;;;3.20;;
15950;SDS011;8074;48.112;11.570;2022-10-26T08:43:23;2.57;;;1.53;;
15950;SDS011;8074;48.112;11.570;2022-10-26T08:46:04;4.33;;;1.60;;
15950;SDS011;8074;48.112;11.570;2022-10-26T08:48:37;2.77;;;1.60;;
15950;SDS011;8074;48.112;11.570;2022-10-26T08:51:09;2.40;;;1.53;;
15950;SDS011;8074;48.112;11.570;2022-10-26T08:53:41;4.33;;;1.70;;
15950;SDS011;8074;48.112;11.570;2022-10-26T08:56:17;2.47;;;1.50;;
15950;SDS011;8074;48.112;11.570;2022-10-26T08:59:05;2.87;;;1.70;;
15950;SDS011;8074;48.112;11.570;2022-10-26T09:01:37;5.83;;;2.07;;
15950;SDS011;8074;48.112;11.570;2022-10-26T09:04:05;3.63;;;1.53;;
15950;SDS011;8074;48.112;11.570;2022-10-26T09:06:39;5.77;;;3.30;;
15950;SDS011;8074;48.112;11.570;2022-10-26T09:09:16;5.03;;;1.90;;
15950;SDS011;8074;48.112;11.570;2022-10-26T09:11:50;5.63;;;1.90;;
15950;SDS011;8074;48.112;11.570;2022-10-26T09:14:27;4.87;;;1.50;;
15950;SDS011;8074;48.112;11.570;2022-10-26T09:17:04;4.50;;;1.30;;
15950;SDS011;8074;48.112;11.570;2022-10-26T09:19:47;3.57;;;1.40;;
15950;SDS011;8074;48.112;11.570;2022-10-26T09:22:21;5.37;;;2.33;;
15950;SDS011;8074;48.112;11.570;2022-10-26T09:24:51;2.80;;;1.60;;
15950;SDS011;8074;48.112;11.570;2022-10-26T09:27:22;3.00;;;1.80;;
15950;SDS011;8074;48.112;11.570;2022-10-26T09:30:10;3.30;;;1.70;;
15950;SDS011;8074;48.112;11.570;2022-10-26T09:32:42;3.67;;;1.67;;
15950;SDS011;8074;48.112;11.570;2022-10-26T09:35:12;3.40;;;1.57;;
15950;SDS011;8074;48.112;11.570;2022-10-26T09:37:44;5.33;;;1.30;;
15950;SDS011;8074;48.112;11.570;2022-10-26T09:40:16;4.70;;;1.90;;
15950;SDS011;8074;48.112;11.570;2022-10-26T09:42:48;5.03;;;1.70;;
15950;SDS011;8074;48.112;11.570;2022-10-26T09:45:23;5.00;;;2.03;;
15950;SDS011;8074;48.112;11.570;2022-10-26T09:47:55;2.03;;;1.33;;
15950;SDS011;8074;48.112;11.570;2022-10-26T09:50:27;3.03;;;1.30;;
15950;SDS011;8074;48.112;11.570;2022-10-26T09:52:57;3.73;;;1.60;;
15950;SDS011;8074;48.112;11.570;2022-10-26T09:55:24;2.80;;;1.40;;
15950;SDS011;8074;48.112;11.570;2022-10-26T09:57:55;3.13;;;1.50;;
15950;SDS011;8074;48.112;11.570;2022-10-26T10:00:41;3.10;;;1.60;;
15950;SDS011;8074;48.112;11.570;2022-10-26T10:03:20;5.00;;;1.67;;
15950;SDS011;8074;48.112;11.570;2022-10-26T10:06:13;8.47;;;1.80;;
15950;SDS011;8074;48.112;11.570;2022-10-26T10:08:41;4.03;;;1.50;;
15950;SDS011;8074;48.112;11.570;2022-10-26T10:11:11;5.03;;;1.77;;
15950;SDS011;8074;48.112;11.570;2022-10-26T10:13:40;3.93;;;1.60;;
15950;SDS011;8074;48.112;11.570;2022-10-26T10:16:12;4.43;;;1.60;;
15950;SDS011;8074;48.112;11.570;2022-10-26T10:18:51;5.13;;;1.70;;
15950;SDS011;8074;48.112;11.570;2022-10-26T10:21:19;2.87;;;1.53;;
15950;SDS011;8074;48.112;11.570;2022-10-26T10:23:47;3.27;;;1.50;;
15950;SDS011;8074;48.112;11.570;2022-10-26T10:26:16;3.63;;;1.60;;
15950;SDS011;8074;48.112;11.570;2022-10-26T10:28:54;4.27;;;1.77;;
15950;SDS011;8074;48.112;11.570;2022-10-26T10:31:27;4.93;;;1.63;;
15950;SDS011;8074;48.112;11.570;2022-10-26T10:33:55;1.93;;;1.47;;
15950;SDS011;8074;48.112;11.570;2022-10-26T10:36:22;5.60;;;1.53;;
15950;SDS011;8074;48.112;11.570;2022-10-26T10:38:53;3.27;;;1.80;;
15950;SDS011;8074;48.112;11.570;2022-10-26T10:41:23;6.30;;;1.60;;
15950;SDS011;8074;48.112;11.570;2022-10-26T10:43:54;4.57;;;1.70;;
15950;SDS011;8074;48.112;11.570;2022-10-26T10:46:35;3.67;;;2.00;;
15950;SDS011;8074;48.112;11.570;2022-10-26T10:49:03;4.43;;;1.67;;
15950;SDS011;8074;48.112;11.570;2022-10-26T10:51:34;3.83;;;1.60;;
15950;SDS011;8074;48.112;11.570;2022-10-26T10:54:05;4.50;;;1.97;;
15950;SDS011;8074;48.112;11.570;2022-10-26T10:56:45;4.83;;;2.17;;
15950;SDS011;8074;48.112;11.570;2022-10-26T11:02:20;5.27;;;2.00;;
15950;SDS011;8074;48.112;11.570;2022-10-26T11:05:05;5.50;;;1.87;;
15950;SDS011;8074;48.112;11.570;2022-10-26T11:07:49;6.63;;;2.13;;
15950;SDS011;8074;48.112;11.570;2022-10-26T11:10:21;5.37;;;1.83;;
15950;SDS011;8074;48.112;11.570;2022-10-26T11:12:52;4.83;;;2.03;;
15950;SDS011;8074;48.112;11.570;2022-10-26T11:15:23;5.23;;;2.03;;
15950;SDS011;8074;48.112;11.570;2022-10-26T11:17:57;5.40;;;1.90;;
15950;SDS011;8074;48.112;11.570;2022-10-26T11:20:31;8.53;;;1.83;;
15950;SDS011;8074;48.112;11.570;2022-10-26T11:23:04;5.83;;;2.07;;
15950;SDS011;8074;48.112;11.570;2022-10-26T11:25:37;5.70;;;2.07;;
15950;SDS011;8074;48.112;11.570;2022-10-26T11:28:14;6.77;;;1.60;;
15950;SDS011;8074;48.112;11.570;2022-10-26T11:30:45;6.10;;;1.70;;
15950;SDS011;8074;48.112;11.570;2022-10-26T11:33:21;9.83;;;2.40;;
15950;SDS011;8074;48.112;11.570;2022-10-26T11:35:54;7.07;;;2.47;;
15950;SDS011;8074;48.112;11.570;2022-10-26T11:38:27;5.57;;;2.30;;
15950;SDS011;8074;48.112;11.570;2022-10-26T11:40:59;7.27;;;2.00;;
15950;SDS011;8074;48.112;11.570;2022-10-26T11:43:32;5.03;;;2.13;;
15950;SDS011;8074;48.112;11.570;2022-10-26T11:46:04;7.80;;;2.20;;
15950;SDS011;8074;48.112;11.570;2022-10-26T11:48:39;6.63;;;2.10;;
15950;SDS011;8074;48.112;11.570;2022-10-26T11:51:16;6.20;;;2.07;;
15950;SDS011;8074;48.112;11.570;2022-10-26T11:53:47;6.27;;;2.10;;
15950;SDS011;8074;48.112;11.570;2022-10-26T11:56:20;7.87;;;2.03;;
15950;SDS011;8074;48.112;11.570;2022-10-26T11:58:52;5.30;;;2.50;;
15950;SDS011;8074;48.112;11.570;2022-10-26T12:01:21;10.13;;;2.00;;
15950;SDS011;8074;48.112;11.570;2022-10-26T12:03:51;6.17;;;2.17;;
15950;SDS011;8074;48.112;11.570;2022-10-26T12:06:23;5.50;;;2.10;;
15950;SDS011;8074;48.112;11.570;2022-10-26T12:08:55;11.33;;;2.70;;
15950;SDS011;8074;48.112;11.570;2022-10-26T12:11:36;6.30;;;2.40;;
15950;SDS011;8074;48.112;11.570;2022-10-26T12:14:12;5.00;;;2.50;;
15950;SDS011;8074;48.112;11.570;2022-10-26T12:16:46;5.60;;;2.30;;
15950;SDS011;8074;48.112;11.570;2022-10-26T12:19:23;8.97;;;2.60;;
15950;SDS011;8074;48.112;11.570;2022-10-26T12:21:55;6.53;;;2.53;;
15950;SDS011;8074;48.112;11.570;2022-10-26T12:24:26;7.10;;;2.40;;
15950;SDS011;8074;48.112;11.570;2022-10-26T12:26:57;9.47;;;3.10;;
15950;SDS011;8074;48.112;11.570;2022-10-26T12:29:36;3.93;;;2.20;;
15950;SDS011;8074;48.112;11.570;2022-10-26T12:35:33;6.93;;;2.67;;
15950;SDS011;8074;48.112;11.570;2022-10-26T12:41:21;10.70;;;2.77;;
15950;SDS011;8074;48.112;11.570;2022-10-26T12:43:54;8.90;;;2.60;;
15950;SDS011;8074;48.112;11.570;2022-10-26T12:52:42;9.63;;;2.83;;
15950;SDS011;8074;48.112;11.570;2022-10-26T12:55:27;8.83;;;2.50;;
15950;SDS011;8074;48.112;11.570;2022-10-26T13:07:21;8.97;;;2.40;;
15950;SDS011;8074;48.112;11.570;2022-10-26T13:09:53;8.00;;;2.63;;
15950;SDS011;8074;48.112;11.570;2022-10-26T13:12:24;10.97;;;2.60;;
15950;SDS011;8074;48.112;11.570;2022-10-26T13:14:57;8.90;;;2.67;;
15950;SDS011;8074;48.112;11.570;2022-10-26T13:17:28;7.07;;;2.20;;
15950;SDS011;8074;48.112;11.570;2022-10-26T13:19:58;6.20;;;2.60;;
15950;SDS011;8074;48.112;11.570;2022-10-26T13:22:27;7.90;;;2.50;;
15950;SDS011;8074;48.112;11.570;2022-10-26T13:24:59;10.43;;;3.07;;
15950;SDS011;8074;48.112;11.570;2022-10-26T13:36:02;5.83;;;2.40;;
15950;SDS011;8074;48.112;11.570;2022-10-26T13:38:40;10.80;;;2.60;;
15950;SDS011;8074;48.112;11.570;2022-10-26T13:41:13;9.47;;;2.73;;
15950;SDS011;8074;48.112;11.570;2022-10-26T13:43:45;10.33;;;2.73;;
15950;SDS011;8074;48.112;11.570;2022-10-26T13:46:25;9.27;;;2.43;;
15950;SDS011;8074;48.112;11.570;2022-10-26T13:48:53;11.37;;;3.00;;
15950;SDS011;8074;48.112;11.570;2022-10-26T13:51:29;8.70;;;2.80;;
15950;SDS011;8074;48.112;11.570;2022-10-26T13:54:06;10.90;;;2.70;;
15950;SDS011;8074;48.112;11.570;2022-10-26T13:56:43;11.90;;;4.27;;
15950;SDS011;8074;48.112;11.570;2022-10-26T13:59:20;7.07;;;2.90;;
15950;SDS011;8074;48.112;11.570;2022-10-26T14:01:58;12.20;;;2.97;;
15950;SDS011;8074;48.112;11.570;2022-10-26T14:04:32;6.10;;;2.40;;
15950;SDS011;8074;48.112;11.570;2022-10-26T14:06:59;6.10;;;2.30;;
15950;SDS011;8074;48.112;11.570;2022-10-26T14:09:26;7.10;;;2.60;;
15950;SDS011;8074;48.112;11.570;2022-10-26T14:11:56;5.90;;;2.50;;
15950;SDS011;8074;48.112;11.570;2022-10-26T14:14:27;6.80;;;2.27;;
15950;SDS011;8074;48.112;11.570;2022-10-26T14:16:55;6.47;;;2.53;;
15950;SDS011;8074;48.112;11.570;2022-10-26T14:19:24;8.17;;;2.80;;
15950;SDS011;8074;48.112;11.570;2022-10-26T14:21:53;7.53;;;2.90;;
15950;SDS011;8074;48.112;11.570;2022-10-26T14:24:21;10.23;;;2.90;;
15950;SDS011;8074;48.112;11.570;2022-10-26T14:26:51;6.83;;;2.57;;
15950;SDS011;8074;48.112;11.570;2022-10-26T14:29:21;7.70;;;2.43;;
15950;SDS011;8074;48.112;11.570;2022-10-26T14:31:49;13.20;;;2.70;;
15950;SDS011;8074;48.112;11.570;2022-10-26T14:34:16;4.90;;;2.10;;
15950;SDS011;8074;48.112;11.570;2022-10-26T14:36:45;6.73;;;2.37;;
15950;SDS011;8074;48.112;11.570;2022-10-26T14:39:17;8.30;;;2.53;;
15950;SDS011;8074;48.112;11.570;2022-10-26T14:41:50;8.10;;;2.83;;
15950;SDS011;8074;48.112;11.570;2022-10-26T14:44:21;8.50;;;2.70;;
15950;SDS011;8074;48.112;11.570;2022-10-26T14:46:50;7.87;;;2.90;;
15950;SDS011;8074;48.112;11.570;2022-10-26T14:49:19;7.43;;;2.63;;
15950;SDS011;8074;48.112;11.570;2022-10-26T14:51:48;6.70;;;2.43;;
15950;SDS011;8074;48.112;11.570;2022-10-26T14:54:21;9.07;;;3.10;;
15950;SDS011;8074;48.112;11.570;2022-10-26T14:56:50;8.70;;;3.00;;
15950;SDS011;8074;48.112;11.570;2022-10-26T14:59:18;8.77;;;2.57;;
15950;SDS011;8074;48.112;11.570;2022-10-26T15:01:50;8.00;;;2.93;;
15950;SDS011;8074;48.112;11.570;2022-10-26T15:04:29;5.13;;;2.43;;
15950;SDS011;8074;48.112;11.570;2022-10-26T15:07:07;7.93;;;2.87;;
15950;SDS011;8074;48.112;11.570;2022-10-26T15:09:41;8.07;;;2.93;;
15950;SDS011;8074;48.112;11.570;2022-10-26T15:12:23;9.67;;;3.03;;
15950;SDS011;8074;48.112;11.570;2022-10-26T15:14:57;8.57;;;2.87;;
15950;SDS011;8074;48.112;11.570;2022-10-26T15:17:35;9.33;;;3.43;;
15950;SDS011;8074;48.112;11.570;2022-10-26T15:20:06;9.20;;;3.20;;
15950;SDS011;8074;48.112;11.570;2022-10-26T15:22:39;15.27;;;6.13;;
15950;SDS011;8074;48.112;11.570;2022-10-26T15:25:15;11.40;;;4.23;;
15950;SDS011;8074;48.112;11.570;2022-10-26T15:27:48;13.27;;;6.30;;
15950;SDS011;8074;48.112;11.570;2022-10-26T15:30:19;10.00;;;3.23;;
15950;SDS011;8074;48.112;11.570;2022-10-26T15:32:52;7.37;;;3.10;;
15950;SDS011;8074;48.112;11.570;2022-10-26T15:35:27;10.47;;;3.33;;
15950;SDS011;8074;48.112;11.570;2022-10-26T15:37:57;7.90;;;3.13;;
15950;SDS011;8074;48.112;11.570;2022-10-26T15:40:26;9.20;;;3.17;;
15950;SDS011;8074;48.112;11.570;2022-10-26T15:42:57;4.93;;;2.80;;
15950;SDS011;8074;48.112;11.570;2022-10-26T15:45:28;7.23;;;3.27;;
15950;SDS011;8074;48.112;11.570;2022-10-26T15:47:57;9.17;;;3.10;;
15950;SDS011;8074;48.112;11.570;2022-10-26T15:50:26;7.13;;;2.77;;
15950;SDS011;8074;48.112;11.570;2022-10-26T15:52:58;8.33;;;3.10;;
15950;SDS011;8074;48.112;11.570;2022-10-26T15:55:27;12.67;;;3.37;;
15950;SDS011;8074;48.112;11.570;2022-10-26T15:57:55;8.67;;;3.20;;
15950;SDS011;8074;48.112;11.570;2022-10-26T16:00:22;7.33;;;3.37;;
15950;SDS011;8074;48.112;11.570;2022-10-26T16:05:39;10.00;;;4.00;;
15950;SDS011;8074;48.112;11.570;2022-10-26T16:08:07;8.60;;;3.70;;
15950;SDS011;8074;48.112;11.570;2022-10-26T16:10:37;8.53;;;4.13;;
15950;SDS011;8074;48.112;11.570;2022-10-26T16:13:03;11.47;;;5.97;;